createdAt,value
2019-01-26T00:00:07.128Z,37.13
2019-01-26T00:00:38.400Z,35.65
2019-01-26T00:01:09.627Z,34.88
2019-01-26T00:01:40.836Z,33.98
2019-01-26T00:02:12.151Z,36.58
2019-01-26T00:02:43.367Z,32.33
2019-01-26T00:03:14.619Z,34.60
2019-01-26T00:03:45.848Z,33.95
2019-01-26T00:04:17.078Z,31.25
2019-01-26T00:04:48.331Z,33.67
2019-01-26T00:05:19.581Z,32.73
2019-01-26T00:05:50.812Z,31.82
2019-01-26T00:06:22.034Z,30.62
2019-01-26T00:06:53.255Z,33.08
2019-01-26T00:07:24.472Z,29.75
2019-01-26T00:07:55.686Z,34.33
2019-01-26T00:08:26.922Z,31.62
2019-01-26T00:08:58.160Z,30.27
2019-01-26T00:09:29.372Z,32.45
2019-01-26T00:10:00.687Z,35.00
2019-01-26T00:10:31.916Z,30.77
2019-01-26T00:11:03.143Z,27.80
2019-01-26T00:11:34.391Z,27.93
2019-01-26T00:12:05.610Z,35.60
2019-01-26T00:12:36.815Z,30.08
2019-01-26T00:13:08.055Z,29.85
2019-01-26T00:13:39.271Z,25.68
2019-01-26T00:14:10.582Z,31.77
2019-01-26T00:14:41.816Z,25.02
2019-01-26T00:15:13.042Z,31.73
2019-01-26T00:15:44.326Z,27.98
2019-01-26T00:16:20.998Z,33.65
2019-01-26T00:16:48.504Z,32.05
2019-01-26T00:17:19.725Z,26.20
2019-01-26T00:17:51.028Z,25.68
2019-01-26T00:18:22.255Z,24.92
2019-01-26T00:18:53.492Z,28.40
2019-01-26T00:19:24.774Z,27.90
2019-01-26T00:19:55.978Z,28.90
2019-01-26T00:20:27.194Z,25.55
2019-01-26T00:20:58.406Z,28.00
2019-01-26T00:21:29.637Z,30.68
2019-01-26T00:22:00.856Z,27.27
2019-01-26T00:22:32.076Z,28.27
2019-01-26T00:23:03.340Z,26.77
2019-01-26T00:23:34.598Z,28.62
2019-01-26T00:24:06.063Z,25.85
2019-01-26T00:24:37.297Z,30.92
2019-01-26T00:25:08.517Z,26.97
2019-01-26T00:25:39.742Z,31.97
2019-01-26T00:26:10.983Z,26.82
2019-01-26T00:26:42.203Z,27.77
2019-01-26T00:27:13.455Z,28.40
2019-01-26T00:27:44.691Z,27.35
2019-01-26T00:28:15.878Z,27.17
2019-01-26T00:28:47.093Z,30.05
2019-01-26T00:29:18.304Z,29.60
2019-01-26T00:29:49.514Z,32.55
2019-01-26T00:30:20.825Z,26.50
2019-01-26T00:30:52.060Z,27.77
2019-01-26T00:31:23.281Z,28.02
2019-01-26T00:31:54.490Z,32.53
2019-01-26T00:32:25.700Z,27.80
2019-01-26T00:32:56.962Z,23.73
2019-01-26T00:33:28.173Z,29.12
2019-01-26T00:33:59.385Z,26.00
2019-01-26T00:34:30.682Z,28.05
2019-01-26T00:35:01.889Z,24.72
2019-01-26T00:35:33.137Z,27.82
2019-01-26T00:36:04.344Z,27.30
2019-01-26T00:36:35.579Z,30.15
2019-01-26T00:37:06.808Z,25.32
2019-01-26T00:37:38.032Z,30.17
2019-01-26T00:38:09.317Z,25.05
2019-01-26T00:38:40.516Z,27.25
2019-01-26T00:39:11.729Z,27.87
2019-01-26T00:39:43.007Z,31.77
2019-01-26T00:40:14.242Z,31.50
2019-01-26T00:40:45.522Z,27.05
2019-01-26T00:41:16.734Z,24.72
2019-01-26T00:41:47.957Z,32.70
2019-01-26T00:42:19.412Z,29.65
2019-01-26T00:42:50.625Z,31.68
2019-01-26T00:43:21.892Z,27.50
2019-01-26T00:43:53.108Z,35.43
2019-01-26T00:44:24.343Z,31.62
2019-01-26T00:44:55.566Z,27.05
2019-01-26T00:45:26.813Z,31.35
2019-01-26T00:45:58.035Z,29.90
2019-01-26T00:46:29.291Z,25.72
2019-01-26T00:47:00.522Z,27.10
2019-01-26T00:47:31.732Z,29.55
2019-01-26T00:48:02.949Z,31.50
2019-01-26T00:48:34.167Z,27.25
2019-01-26T00:49:05.374Z,24.60
2019-01-26T00:49:36.608Z,27.65
2019-01-26T00:50:07.822Z,30.30
2019-01-26T00:50:39.034Z,32.30
2019-01-26T00:51:10.242Z,27.27
2019-01-26T00:51:41.514Z,29.07
2019-01-26T00:52:12.778Z,30.68
2019-01-26T00:52:43.998Z,31.10
2019-01-26T00:53:15.224Z,27.67
2019-01-26T00:53:46.449Z,27.32
2019-01-26T00:54:17.664Z,29.80
2019-01-26T00:54:48.923Z,29.07
2019-01-26T00:55:20.148Z,31.42
2019-01-26T00:55:51.373Z,30.20
2019-01-26T00:56:22.595Z,27.07
2019-01-26T00:56:53.877Z,31.12
2019-01-26T00:57:25.090Z,31.57
2019-01-26T00:57:56.310Z,29.40
2019-01-26T00:58:27.516Z,32.28
2019-01-26T00:58:58.807Z,29.27
2019-01-26T00:59:30.141Z,25.80
2019-01-26T01:00:01.438Z,31.90
2019-01-26T01:00:32.685Z,27.05
2019-01-26T01:01:03.922Z,28.73
2019-01-26T01:01:35.150Z,27.25
2019-01-26T01:02:06.372Z,30.05
2019-01-26T01:02:37.638Z,26.10
2019-01-26T01:03:08.860Z,26.12
2019-01-26T01:03:40.113Z,22.85
2019-01-26T01:04:11.397Z,26.10
2019-01-26T01:04:42.611Z,25.95
2019-01-26T01:05:13.838Z,29.32
2019-01-26T01:05:45.073Z,29.82
2019-01-26T01:06:16.385Z,29.25
2019-01-26T01:06:47.648Z,25.32
2019-01-26T01:07:18.870Z,32.42
2019-01-26T01:07:50.130Z,30.32
2019-01-26T01:08:21.382Z,30.30
2019-01-26T01:08:52.615Z,28.52
2019-01-26T01:09:23.820Z,32.00
2019-01-26T01:09:55.049Z,32.15
2019-01-26T01:10:26.286Z,27.65
2019-01-26T01:10:57.559Z,28.87
2019-01-26T01:11:28.771Z,26.65
2019-01-26T01:12:00.063Z,27.07
2019-01-26T01:12:31.324Z,33.67
2019-01-26T01:13:02.590Z,29.60
2019-01-26T01:13:33.803Z,31.65
2019-01-26T01:14:05.012Z,33.00
2019-01-26T01:14:36.246Z,25.17
2019-01-26T01:15:07.463Z,28.60
2019-01-26T01:15:38.675Z,29.07
2019-01-26T01:16:09.911Z,34.60
2019-01-26T01:16:41.123Z,33.25
2019-01-26T01:17:12.356Z,27.05
2019-01-26T01:17:43.573Z,29.95
2019-01-26T01:18:14.782Z,31.12
2019-01-26T01:18:45.947Z,30.08
2019-01-26T01:19:17.149Z,33.38
2019-01-26T01:19:48.455Z,27.45
2019-01-26T01:20:19.690Z,36.58
2019-01-26T01:20:50.959Z,27.70
2019-01-26T01:21:22.212Z,31.12
2019-01-26T01:21:53.454Z,37.60
2019-01-26T01:22:24.729Z,31.93
2019-01-26T01:22:55.954Z,32.67
2019-01-26T01:23:27.166Z,31.93
2019-01-26T01:23:58.456Z,34.75
2019-01-26T01:24:29.685Z,33.58
2019-01-26T01:25:00.950Z,38.42
2019-01-26T01:25:32.185Z,36.53
2019-01-26T01:26:03.401Z,35.08
2019-01-26T01:26:34.615Z,38.80
2019-01-26T01:27:05.835Z,33.08
2019-01-26T01:27:37.088Z,37.60
2019-01-26T01:28:08.313Z,37.42
2019-01-26T01:28:39.520Z,34.90
2019-01-26T01:29:10.784Z,39.75
2019-01-26T01:29:42.061Z,33.58
2019-01-26T01:30:13.290Z,36.03
2019-01-26T01:30:44.496Z,35.65
2019-01-26T01:31:15.713Z,31.97
2019-01-26T01:31:46.946Z,41.45
2019-01-26T01:32:18.169Z,39.73
2019-01-26T01:32:49.431Z,37.73
2019-01-26T01:33:20.672Z,40.55
2019-01-26T01:33:51.873Z,39.80
2019-01-26T01:34:23.899Z,37.42
2019-01-26T01:34:55.182Z,41.92
2019-01-26T01:35:26.438Z,41.20
2019-01-26T01:35:57.694Z,33.88
2019-01-26T01:36:28.942Z,39.65
2019-01-26T01:37:00.231Z,35.52
2019-01-26T01:37:31.459Z,39.95
2019-01-26T01:38:02.695Z,41.83
2019-01-26T01:38:33.905Z,41.40
2019-01-26T01:39:05.124Z,41.73
2019-01-26T01:39:36.336Z,41.30
2019-01-26T01:40:07.536Z,46.20
2019-01-26T01:40:40.214Z,41.33
2019-01-26T01:41:11.749Z,45.63
2019-01-26T01:41:42.971Z,43.95
2019-01-26T01:42:14.207Z,41.05
2019-01-26T01:42:45.467Z,53.35
2019-01-26T01:43:16.683Z,47.33
2019-01-26T01:43:47.888Z,41.30
2019-01-26T01:44:19.113Z,48.30
2019-01-26T01:44:50.383Z,45.52
2019-01-26T01:45:21.601Z,48.83
2019-01-26T01:45:52.813Z,46.90
2019-01-26T01:46:24.071Z,45.38
2019-01-26T01:46:55.280Z,51.08
2019-01-26T01:47:26.510Z,45.73
2019-01-26T01:47:57.736Z,50.30
2019-01-26T01:48:29.010Z,45.95
2019-01-26T01:49:00.338Z,44.63
2019-01-26T01:49:31.532Z,42.23
2019-01-26T01:50:02.766Z,53.00
2019-01-26T01:50:33.975Z,44.48
2019-01-26T01:51:05.234Z,49.95
2019-01-26T01:51:36.494Z,48.87
2019-01-26T01:52:07.695Z,52.10
2019-01-26T01:52:38.953Z,51.92
2019-01-26T01:53:12.513Z,46.80
2019-01-26T01:53:43.774Z,48.25
2019-01-26T01:54:14.980Z,54.00
2019-01-26T01:54:46.198Z,49.25
2019-01-26T01:55:17.462Z,49.85
2019-01-26T01:55:49.694Z,47.50
2019-01-26T01:56:20.907Z,52.23
2019-01-26T01:56:52.120Z,53.30
2019-01-26T01:57:23.332Z,53.68
2019-01-26T01:57:54.545Z,52.15
2019-01-26T01:58:25.778Z,53.78
2019-01-26T01:58:57.066Z,50.60
2019-01-26T01:59:28.275Z,50.30
2019-01-26T01:59:59.514Z,50.33
2019-01-26T02:00:30.800Z,49.58
2019-01-26T02:01:02.042Z,48.40
2019-01-26T02:01:33.278Z,48.85
2019-01-26T02:02:04.494Z,49.20
2019-01-26T02:02:35.702Z,51.23
2019-01-26T02:03:06.910Z,49.90
2019-01-26T02:03:38.171Z,47.38
2019-01-26T02:04:09.394Z,44.42
2019-01-26T02:04:40.639Z,49.65
2019-01-26T02:05:11.875Z,49.20
2019-01-26T02:05:43.139Z,51.98
2019-01-26T02:06:14.410Z,48.83
2019-01-26T02:06:45.625Z,46.13
2019-01-26T02:07:16.882Z,45.43
2019-01-26T02:07:48.116Z,40.98
2019-01-26T02:08:19.324Z,48.52
2019-01-26T02:08:50.574Z,44.40
2019-01-26T02:09:21.816Z,45.35
2019-01-26T02:09:53.025Z,45.55
2019-01-26T02:10:24.266Z,42.75
2019-01-26T02:10:55.471Z,45.33
2019-01-26T02:11:26.696Z,44.42
2019-01-26T02:11:57.920Z,41.95
2019-01-26T02:12:29.190Z,46.15
2019-01-26T02:13:00.396Z,43.78
2019-01-26T02:13:31.618Z,40.88
2019-01-26T02:14:02.868Z,44.15
2019-01-26T02:14:34.083Z,38.17
2019-01-26T02:15:05.303Z,44.50
2019-01-26T02:15:36.535Z,45.23
2019-01-26T02:16:07.739Z,44.27
2019-01-26T02:16:39.009Z,45.08
2019-01-26T02:17:10.223Z,39.00
2019-01-26T02:17:41.481Z,43.98
2019-01-26T02:18:12.694Z,41.18
2019-01-26T02:18:43.927Z,44.33
2019-01-26T02:19:15.111Z,43.80
2019-01-26T02:19:46.328Z,42.60
2019-01-26T02:20:17.557Z,43.68
2019-01-26T02:20:48.790Z,41.73
2019-01-26T02:21:20.368Z,42.73
2019-01-26T02:21:51.583Z,42.95
2019-01-26T02:22:22.793Z,50.33
2019-01-26T02:22:54.069Z,40.35
2019-01-26T02:23:25.277Z,45.95
2019-01-26T02:23:56.508Z,41.37
2019-01-26T02:24:27.721Z,45.28
2019-01-26T02:24:58.995Z,48.20
2019-01-26T02:25:30.206Z,43.63
2019-01-26T02:26:01.484Z,42.93
2019-01-26T02:26:32.743Z,44.73
2019-01-26T02:27:03.956Z,47.03
2019-01-26T02:27:35.171Z,44.23
2019-01-26T02:28:06.419Z,39.58
2019-01-26T02:28:37.680Z,44.65
2019-01-26T02:29:08.916Z,40.05
2019-01-26T02:29:40.145Z,47.83
2019-01-26T02:30:11.360Z,45.75
2019-01-26T02:30:42.581Z,42.78
2019-01-26T02:31:13.842Z,40.28
2019-01-26T02:31:45.093Z,40.65
2019-01-26T02:32:16.289Z,38.85
2019-01-26T02:32:47.544Z,40.83
2019-01-26T02:33:18.752Z,44.15
2019-01-26T02:33:49.970Z,43.85
2019-01-26T02:34:21.204Z,46.25
2019-01-26T02:34:52.472Z,38.75
2019-01-26T02:35:23.711Z,43.63
2019-01-26T02:35:54.927Z,44.38
2019-01-26T02:36:26.156Z,43.83
2019-01-26T02:36:57.390Z,46.30
2019-01-26T02:37:29.727Z,41.98
2019-01-26T02:38:00.950Z,48.45
2019-01-26T02:38:32.168Z,44.38
2019-01-26T02:39:03.383Z,46.00
2019-01-26T02:39:34.610Z,43.15
2019-01-26T02:40:05.881Z,46.10
2019-01-26T02:40:37.090Z,42.58
2019-01-26T02:41:08.318Z,42.40
2019-01-26T02:41:39.581Z,38.45
2019-01-26T02:42:10.786Z,44.23
2019-01-26T02:42:42.045Z,39.73
2019-01-26T02:43:13.280Z,42.43
2019-01-26T02:43:44.507Z,44.15
2019-01-26T02:44:15.796Z,38.60
2019-01-26T02:44:47.002Z,39.45
2019-01-26T02:45:18.225Z,42.38
2019-01-26T02:45:49.468Z,35.45
2019-01-26T02:46:20.686Z,38.88
2019-01-26T02:46:57.893Z,40.17
2019-01-26T02:47:25.821Z,39.85
2019-01-26T02:47:57.053Z,43.52
2019-01-26T02:48:28.268Z,39.50
2019-01-26T02:48:59.484Z,39.80
2019-01-26T02:49:30.707Z,41.05
2019-01-26T02:50:01.956Z,38.88
2019-01-26T02:50:33.141Z,39.73
2019-01-26T02:51:04.382Z,39.10
2019-01-26T02:51:35.591Z,36.42
2019-01-26T02:52:06.876Z,32.10
2019-01-26T02:52:38.092Z,37.28
2019-01-26T02:53:09.346Z,38.28
2019-01-26T02:53:40.549Z,38.92
2019-01-26T02:54:11.754Z,34.65
2019-01-26T02:54:42.967Z,38.08
2019-01-26T02:55:14.202Z,35.63
2019-01-26T02:55:45.446Z,38.45
2019-01-26T02:56:16.743Z,37.80
2019-01-26T02:56:47.968Z,34.30
2019-01-26T02:57:19.254Z,37.98
2019-01-26T02:57:50.516Z,42.95
2019-01-26T02:58:21.750Z,37.30
2019-01-26T02:58:52.980Z,38.58
2019-01-26T02:59:24.191Z,37.00
2019-01-26T02:59:55.423Z,43.02
2019-01-26T03:00:26.644Z,38.05
2019-01-26T03:00:57.857Z,36.98
2019-01-26T03:01:29.103Z,42.13
2019-01-26T03:02:00.332Z,41.50
2019-01-26T03:02:31.592Z,38.78
2019-01-26T03:03:02.805Z,39.00
2019-01-26T03:03:34.030Z,42.05
2019-01-26T03:04:05.297Z,35.75
2019-01-26T03:04:36.539Z,37.65
2019-01-26T03:05:07.781Z,43.52
2019-01-26T03:05:38.993Z,38.65
2019-01-26T03:06:12.180Z,39.65
2019-01-26T03:06:43.499Z,38.30
2019-01-26T03:07:14.730Z,39.53
2019-01-26T03:07:45.938Z,35.15
2019-01-26T03:08:17.235Z,35.05
2019-01-26T03:08:48.470Z,37.13
2019-01-26T03:09:19.673Z,41.42
2019-01-26T03:09:50.900Z,36.20
2019-01-26T03:10:22.122Z,43.83
2019-01-26T03:10:53.335Z,42.95
2019-01-26T03:11:24.567Z,37.98
2019-01-26T03:11:55.786Z,35.58
2019-01-26T03:12:27.022Z,40.38
2019-01-26T03:12:58.285Z,37.83
2019-01-26T03:13:29.523Z,41.88
2019-01-26T03:14:00.738Z,38.85
2019-01-26T03:14:31.948Z,36.25
2019-01-26T03:15:03.204Z,34.03
2019-01-26T03:15:35.426Z,38.98
2019-01-26T03:16:06.717Z,39.95
2019-01-26T03:16:37.969Z,39.75
2019-01-26T03:17:09.318Z,36.00
2019-01-26T03:17:40.626Z,34.70
2019-01-26T03:18:11.860Z,36.90
2019-01-26T03:18:43.075Z,34.80
2019-01-26T03:19:14.305Z,38.58
2019-01-26T03:19:45.531Z,34.15
2019-01-26T03:20:16.793Z,34.83
2019-01-26T03:20:48.008Z,39.33
2019-01-26T03:21:19.256Z,36.23
2019-01-26T03:21:50.475Z,34.48
2019-01-26T03:22:21.762Z,37.70
2019-01-26T03:22:53.003Z,39.03
2019-01-26T03:23:24.268Z,34.60
2019-01-26T03:23:55.533Z,35.03
2019-01-26T03:24:26.797Z,32.83
2019-01-26T03:24:58.028Z,31.45
2019-01-26T03:25:29.245Z,38.40
2019-01-26T03:26:00.477Z,40.48
2019-01-26T03:26:31.744Z,37.17
2019-01-26T03:27:02.994Z,33.67
2019-01-26T03:27:34.231Z,28.52
2019-01-26T03:28:05.451Z,34.85
2019-01-26T03:28:36.681Z,32.70
2019-01-26T03:29:07.910Z,31.33
2019-01-26T03:29:39.212Z,35.45
2019-01-26T03:30:10.416Z,28.85
2019-01-26T03:30:41.654Z,30.85
2019-01-26T03:31:12.890Z,33.88
2019-01-26T03:31:44.139Z,29.55
2019-01-26T03:32:15.399Z,31.23
2019-01-26T03:32:46.614Z,37.35
2019-01-26T03:33:17.881Z,33.50
2019-01-26T03:33:49.108Z,35.03
2019-01-26T03:34:20.365Z,32.30
2019-01-26T03:34:51.594Z,31.93
2019-01-26T03:35:22.819Z,29.45
2019-01-26T03:35:54.051Z,35.43
2019-01-26T03:36:25.313Z,36.25
2019-01-26T03:36:56.553Z,32.45
2019-01-26T03:37:27.790Z,33.85
2019-01-26T03:37:59.084Z,35.20
2019-01-26T03:38:30.350Z,32.13
2019-01-26T03:39:01.529Z,34.18
2019-01-26T03:39:32.769Z,33.38
2019-01-26T03:40:03.982Z,37.45
2019-01-26T03:40:35.220Z,36.00
2019-01-26T03:41:06.432Z,34.83
2019-01-26T03:41:37.676Z,37.45
2019-01-26T03:42:08.927Z,33.70
2019-01-26T03:42:40.161Z,34.55
2019-01-26T03:43:13.659Z,36.77
2019-01-26T03:43:44.865Z,31.20
2019-01-26T03:44:16.098Z,33.90
2019-01-26T03:44:47.316Z,31.07
2019-01-26T03:45:18.535Z,39.90
2019-01-26T03:45:49.743Z,32.95
2019-01-26T03:46:23.146Z,40.43
2019-01-26T03:46:54.363Z,31.57
2019-01-26T03:47:25.571Z,34.53
2019-01-26T03:47:57.025Z,35.78
2019-01-26T03:48:28.247Z,33.10
2019-01-26T03:48:59.482Z,38.15
2019-01-26T03:49:30.696Z,35.58
2019-01-26T03:50:01.914Z,32.28
2019-01-26T03:50:33.180Z,36.10
2019-01-26T03:51:04.459Z,38.20
2019-01-26T03:51:35.668Z,38.48
2019-01-26T03:52:06.914Z,35.38
2019-01-26T03:52:38.120Z,32.63
2019-01-26T03:53:09.492Z,36.55
2019-01-26T03:53:40.707Z,39.83
2019-01-26T03:54:11.932Z,33.13
2019-01-26T03:54:43.191Z,32.73
2019-01-26T03:55:14.393Z,36.70
2019-01-26T03:55:45.631Z,36.93
2019-01-26T03:56:16.910Z,32.70
2019-01-26T03:56:48.175Z,31.73
2019-01-26T03:57:20.310Z,33.98
2019-01-26T03:57:51.745Z,37.58
2019-01-26T03:58:23.059Z,32.20
2019-01-26T03:58:54.273Z,32.53
2019-01-26T03:59:25.561Z,30.68
2019-01-26T03:59:56.772Z,37.63
2019-01-26T04:00:28.014Z,33.10
2019-01-26T04:00:59.256Z,31.65
2019-01-26T04:01:30.471Z,42.13
2019-01-26T04:02:01.703Z,31.80
2019-01-26T04:02:32.933Z,29.40
2019-01-26T04:03:04.147Z,34.58
2019-01-26T04:03:35.426Z,37.60
2019-01-26T04:04:06.672Z,34.35
2019-01-26T04:04:37.909Z,36.40
2019-01-26T04:05:09.123Z,32.25
2019-01-26T04:05:40.330Z,36.28
2019-01-26T04:06:11.572Z,31.10
2019-01-26T04:06:42.778Z,37.88
2019-01-26T04:07:13.998Z,34.83
2019-01-26T04:07:45.212Z,32.75
2019-01-26T04:08:16.464Z,32.30
2019-01-26T04:08:47.709Z,34.20
2019-01-26T04:09:18.922Z,30.23
2019-01-26T04:09:50.203Z,34.40
2019-01-26T04:10:21.443Z,33.48
2019-01-26T04:10:52.656Z,33.85
2019-01-26T04:11:23.870Z,34.08
2019-01-26T04:11:56.112Z,35.85
2019-01-26T04:12:27.344Z,32.33
2019-01-26T04:12:58.627Z,36.65
2019-01-26T04:13:29.840Z,35.30
2019-01-26T04:14:01.056Z,33.63
2019-01-26T04:14:32.330Z,30.50
2019-01-26T04:15:03.572Z,33.05
2019-01-26T04:15:34.820Z,36.00
2019-01-26T04:16:06.050Z,33.85
2019-01-26T04:16:37.279Z,34.15
2019-01-26T04:17:08.497Z,33.42
2019-01-26T04:17:39.720Z,34.60
2019-01-26T04:18:10.971Z,33.23
2019-01-26T04:18:42.188Z,35.23
2019-01-26T04:19:13.422Z,27.42
2019-01-26T04:19:44.641Z,29.52
2019-01-26T04:20:15.910Z,32.67
2019-01-26T04:20:47.159Z,29.10
2019-01-26T04:21:18.436Z,30.60
2019-01-26T04:21:49.647Z,31.93
2019-01-26T04:22:20.910Z,32.35
2019-01-26T04:22:52.195Z,30.92
2019-01-26T04:23:23.410Z,34.92
2019-01-26T04:23:54.674Z,38.73
2019-01-26T04:24:25.922Z,34.23
2019-01-26T04:24:57.199Z,37.45
2019-01-26T04:25:28.421Z,35.25
2019-01-26T04:25:59.642Z,31.95
2019-01-26T04:26:30.878Z,33.25
2019-01-26T04:27:02.132Z,36.42
2019-01-26T04:27:33.396Z,35.58
2019-01-26T04:28:04.608Z,36.25
2019-01-26T04:28:35.847Z,38.53
2019-01-26T04:29:07.085Z,41.58
2019-01-26T04:29:38.318Z,41.55
2019-01-26T04:30:09.556Z,36.15
2019-01-26T04:30:40.846Z,37.67
2019-01-26T04:31:12.072Z,38.78
2019-01-26T04:31:43.381Z,39.67
2019-01-26T04:32:14.616Z,36.88
2019-01-26T04:32:46.274Z,40.83
2019-01-26T04:33:17.528Z,39.58
2019-01-26T04:33:48.806Z,39.05
2019-01-26T04:34:20.073Z,38.63
2019-01-26T04:34:51.281Z,46.85
2019-01-26T04:35:22.506Z,37.75
2019-01-26T04:35:53.759Z,41.55
2019-01-26T04:36:25.008Z,37.48
2019-01-26T04:36:56.287Z,39.67
2019-01-26T04:37:27.545Z,34.25
2019-01-26T04:37:58.795Z,33.38
2019-01-26T04:38:30.025Z,36.23
2019-01-26T04:39:01.234Z,34.88
2019-01-26T04:39:32.472Z,34.45
2019-01-26T04:40:03.686Z,40.25
2019-01-26T04:40:34.913Z,38.35
2019-01-26T04:41:06.173Z,33.08
2019-01-26T04:41:37.393Z,36.90
2019-01-26T04:42:08.654Z,36.95
2019-01-26T04:42:39.870Z,40.60
2019-01-26T04:43:11.079Z,34.63
2019-01-26T04:43:42.301Z,38.42
2019-01-26T04:44:13.536Z,33.58
2019-01-26T04:44:44.750Z,32.88
2019-01-26T04:45:16.007Z,42.53
2019-01-26T04:45:47.275Z,35.98
2019-01-26T04:46:18.537Z,38.10
2019-01-26T04:46:49.795Z,40.40
2019-01-26T04:47:21.028Z,41.90
2019-01-26T04:47:52.268Z,33.18
2019-01-26T04:48:23.477Z,42.88
2019-01-26T04:48:54.695Z,39.65
2019-01-26T04:49:25.964Z,41.00
2019-01-26T04:49:57.264Z,35.90
2019-01-26T04:50:28.506Z,30.95
2019-01-26T04:50:59.745Z,37.45
2019-01-26T04:51:31.004Z,34.88
2019-01-26T04:52:02.237Z,31.85
2019-01-26T04:52:33.453Z,39.98
2019-01-26T04:53:04.715Z,31.45
2019-01-26T04:53:35.925Z,35.30
2019-01-26T04:54:07.201Z,36.03
2019-01-26T04:54:38.434Z,34.40
2019-01-26T04:55:09.687Z,35.15
2019-01-26T04:55:40.917Z,37.53
2019-01-26T04:56:12.148Z,39.10
2019-01-26T04:56:43.353Z,33.58
2019-01-26T04:57:14.591Z,40.60
2019-01-26T04:57:45.823Z,34.60
2019-01-26T04:58:17.040Z,38.20
2019-01-26T04:58:48.309Z,30.65
2019-01-26T04:59:19.537Z,33.30
2019-01-26T04:59:50.759Z,34.58
2019-01-26T05:00:22.012Z,38.88
2019-01-26T05:00:53.227Z,39.23
2019-01-26T05:01:24.485Z,30.27
2019-01-26T05:01:55.697Z,43.45
2019-01-26T05:02:26.914Z,31.35
2019-01-26T05:02:58.206Z,38.73
2019-01-26T05:03:29.468Z,37.38
2019-01-26T05:04:00.695Z,37.38
2019-01-26T05:04:31.925Z,34.83
2019-01-26T05:05:03.126Z,37.00
2019-01-26T05:05:34.360Z,32.55
2019-01-26T05:06:05.647Z,32.50
2019-01-26T05:06:36.872Z,39.88
2019-01-26T05:07:08.093Z,38.00
2019-01-26T05:07:39.309Z,33.55
2019-01-26T05:08:10.543Z,37.25
2019-01-26T05:08:41.802Z,32.70
2019-01-26T05:09:13.022Z,33.00
2019-01-26T05:09:44.235Z,35.68
2019-01-26T05:10:15.467Z,34.90
2019-01-26T05:10:46.672Z,32.48
2019-01-26T05:11:17.938Z,31.68
2019-01-26T05:11:49.150Z,37.98
2019-01-26T05:12:20.373Z,33.50
2019-01-26T05:12:51.578Z,38.65
2019-01-26T05:13:22.803Z,34.58
2019-01-26T05:13:54.056Z,33.08
2019-01-26T05:14:25.271Z,39.05
2019-01-26T05:14:56.523Z,31.33
2019-01-26T05:15:27.763Z,34.43
2019-01-26T05:15:59.004Z,32.67
2019-01-26T05:16:30.234Z,38.83
2019-01-26T05:17:01.462Z,36.23
2019-01-26T05:17:39.233Z,31.05
2019-01-26T05:18:06.638Z,35.60
2019-01-26T05:18:37.911Z,36.13
2019-01-26T05:19:09.210Z,34.53
2019-01-26T05:19:40.425Z,36.73
2019-01-26T05:20:11.661Z,36.10
2019-01-26T05:20:42.887Z,36.93
2019-01-26T05:21:14.141Z,32.78
2019-01-26T05:21:45.371Z,34.78
2019-01-26T05:22:16.581Z,31.00
2019-01-26T05:22:47.801Z,33.08
2019-01-26T05:23:19.060Z,33.18
2019-01-26T05:23:50.294Z,37.40
2019-01-26T05:24:21.509Z,31.55
2019-01-26T05:24:52.717Z,34.50
2019-01-26T05:25:23.961Z,31.87
2019-01-26T05:25:55.162Z,33.20
2019-01-26T05:26:26.429Z,38.78
2019-01-26T05:26:57.666Z,37.30
2019-01-26T05:27:28.888Z,38.13
2019-01-26T05:28:00.116Z,32.75
2019-01-26T05:28:31.394Z,35.45
2019-01-26T05:29:02.691Z,33.98
2019-01-26T05:29:33.918Z,37.33
2019-01-26T05:30:05.148Z,36.80
2019-01-26T05:30:36.378Z,36.35
2019-01-26T05:31:07.619Z,33.18
2019-01-26T05:31:38.877Z,32.50
2019-01-26T05:32:10.171Z,30.40
2019-01-26T05:32:41.421Z,30.08
2019-01-26T05:33:12.630Z,36.03
2019-01-26T05:33:43.909Z,35.83
2019-01-26T05:34:15.142Z,31.37
2019-01-26T05:34:46.382Z,37.25
2019-01-26T05:35:17.643Z,30.97
2019-01-26T05:35:48.881Z,28.02
2019-01-26T05:36:20.145Z,35.70
2019-01-26T05:36:51.357Z,35.80
2019-01-26T05:37:22.622Z,35.98
2019-01-26T05:37:53.882Z,37.20
2019-01-26T05:38:25.128Z,39.00
2019-01-26T05:38:56.383Z,37.20
2019-01-26T05:39:27.598Z,42.05
2019-01-26T05:39:58.808Z,37.40
2019-01-26T05:40:30.036Z,38.98
2019-01-26T05:41:01.305Z,42.40
2019-01-26T05:41:32.532Z,34.53
2019-01-26T05:42:03.781Z,35.43
2019-01-26T05:42:35.000Z,36.17
2019-01-26T05:43:06.303Z,34.38
2019-01-26T05:43:37.544Z,37.35
2019-01-26T05:44:08.788Z,40.12
2019-01-26T05:44:40.047Z,36.98
2019-01-26T05:45:11.271Z,36.60
2019-01-26T05:45:42.525Z,33.30
2019-01-26T05:46:13.860Z,31.23
2019-01-26T05:46:45.098Z,34.23
2019-01-26T05:47:16.310Z,32.08
2019-01-26T05:47:49.291Z,30.80
2019-01-26T05:48:20.469Z,33.10
2019-01-26T05:48:51.716Z,36.15
2019-01-26T05:49:22.942Z,36.15
2019-01-26T05:49:54.157Z,37.63
2019-01-26T05:50:25.541Z,32.98
2019-01-26T05:50:56.785Z,36.83
2019-01-26T05:51:28.023Z,34.53
2019-01-26T05:51:59.269Z,35.03
2019-01-26T05:52:30.516Z,34.00
2019-01-26T05:53:01.740Z,38.40
2019-01-26T05:53:33.048Z,36.53
2019-01-26T05:54:04.257Z,36.42
2019-01-26T05:54:35.482Z,38.02
2019-01-26T05:55:06.708Z,37.90
2019-01-26T05:55:37.990Z,33.40
2019-01-26T05:56:09.219Z,39.90
2019-01-26T05:56:40.482Z,35.58
2019-01-26T05:57:11.714Z,36.05
2019-01-26T05:57:42.953Z,41.75
2019-01-26T05:58:14.168Z,39.00
2019-01-26T05:58:45.422Z,40.08
2019-01-26T05:59:16.633Z,43.05
2019-01-26T05:59:47.869Z,40.33
2019-01-26T06:00:19.092Z,37.75
2019-01-26T06:00:50.365Z,38.55
2019-01-26T06:01:21.616Z,40.67
2019-01-26T06:01:52.839Z,42.50
2019-01-26T06:02:24.097Z,41.18
2019-01-26T06:02:55.345Z,43.02
2019-01-26T06:03:26.589Z,41.42
2019-01-26T06:03:57.847Z,42.50
2019-01-26T06:04:29.049Z,43.85
2019-01-26T06:05:00.313Z,47.38
2019-01-26T06:05:31.581Z,38.78
2019-01-26T06:06:02.830Z,39.55
2019-01-26T06:06:34.135Z,46.20
2019-01-26T06:07:05.398Z,42.20
2019-01-26T06:07:36.617Z,45.28
2019-01-26T06:08:07.830Z,48.15
2019-01-26T06:08:39.056Z,36.40
2019-01-26T06:09:10.379Z,41.92
2019-01-26T06:09:41.628Z,42.85
2019-01-26T06:10:12.867Z,41.98
2019-01-26T06:10:44.150Z,43.90
2019-01-26T06:11:15.478Z,46.40
2019-01-26T06:11:46.813Z,45.60
2019-01-26T06:12:18.146Z,40.88
2019-01-26T06:12:49.473Z,50.33
2019-01-26T06:13:20.774Z,49.70
2019-01-26T06:13:52.093Z,54.88
2019-01-26T06:14:23.390Z,52.08
2019-01-26T06:14:54.733Z,42.93
2019-01-26T06:15:26.064Z,44.25
2019-01-26T06:15:57.409Z,42.45
2019-01-26T06:16:30.421Z,43.98
2019-01-26T06:17:01.672Z,41.42
2019-01-26T06:17:33.039Z,46.35
2019-01-26T06:18:04.359Z,49.58
2019-01-26T06:18:35.671Z,46.92
2019-01-26T06:19:07.002Z,38.95
2019-01-26T06:19:38.374Z,44.25
2019-01-26T06:20:09.717Z,36.40
2019-01-26T06:20:41.074Z,37.17
2019-01-26T06:21:12.346Z,40.95
2019-01-26T06:21:44.725Z,41.30
2019-01-26T06:22:16.039Z,42.85
2019-01-26T06:22:47.402Z,34.53
2019-01-26T06:23:18.642Z,36.50
2019-01-26T06:23:50.031Z,41.73
2019-01-26T06:24:21.314Z,36.85
2019-01-26T06:24:52.593Z,36.53
2019-01-26T06:25:23.933Z,33.83
2019-01-26T06:25:55.310Z,44.20
2019-01-26T06:26:26.660Z,41.83
2019-01-26T06:26:58.894Z,40.70
2019-01-26T06:27:30.303Z,37.53
2019-01-26T06:28:01.702Z,45.50
2019-01-26T06:28:33.084Z,42.73
2019-01-26T06:29:04.494Z,40.48
2019-01-26T06:29:35.819Z,46.90
2019-01-26T06:30:07.319Z,42.25
2019-01-26T06:30:38.704Z,37.35
2019-01-26T06:31:10.343Z,34.63
2019-01-26T06:31:41.711Z,37.65
2019-01-26T06:32:13.090Z,48.28
2019-01-26T06:32:44.496Z,46.60
2019-01-26T06:33:15.946Z,46.48
2019-01-26T06:33:47.640Z,40.65
2019-01-26T06:34:18.952Z,46.42
2019-01-26T06:34:50.288Z,44.95
2019-01-26T06:35:21.616Z,44.53
2019-01-26T06:35:52.962Z,40.58
2019-01-26T06:36:24.340Z,42.95
2019-01-26T06:36:55.626Z,37.40
2019-01-26T06:37:26.912Z,46.40
2019-01-26T06:37:58.672Z,46.35
2019-01-26T06:38:30.030Z,39.53
2019-01-26T06:39:01.498Z,36.70
2019-01-26T06:39:32.959Z,46.40
2019-01-26T06:40:04.401Z,47.78
2019-01-26T06:40:35.707Z,46.65
2019-01-26T06:41:07.146Z,42.67
2019-01-26T06:41:38.608Z,37.00
2019-01-26T06:42:10.017Z,45.05
2019-01-26T06:42:41.429Z,43.08